Fort Chipewyan Airport
CYPY : now visible

Airfield :











YOU CAN JOIN US ON...

 
LOGIN :

Register | Disclaimer

   EN    FR    IT 

 









Legend :    VFR   Marginal VFR   IFR   Intensive IFR   Very Intensive IFR
Visi :
Ceiling :
>= 8 km
>= 3000ft
5 to 8 km
1000 to 3000 ft
1500m to 5 km
500 to 1000 ft
800 to 1500m
200 to 500 ft
< 800m
< 200 ft
Symbols :   Thunderstorms  Fog  Heavy snow  Heavy precipitations  Wind > 20 kt






- Airport Elevation : 761 ft
- IATA code : YPY


CYPY - Fort Chipewyan

CURRENT METAR :
  • 190600Z AUTO 07003KT 1 3/4SM HZ SCT110 21/18 A2985 RMK SLP113 DENSITY ALT 1700FT

EXPIRED METARs :
  • 190500Z AUTO 07003KT 1 3/4SM HZ BKN100 OVC120 22/19 A2984 RMK SLP110 DENSITY ALT 1900FT
  • 190400Z AUTO 11003KT 1 3/4SM HZ CLR 25/20 A2984 RMK SLP109 DENSITY ALT 2200FT
  • 190300Z AUTO 12004KT 1 3/4SM HZ SCT110 27/21 A2983 RMK SLP104 DENSITY ALT 2400FT
  • 190235Z AUTO 12004KT 2SM HZ FEW110 27/22 A2982 RMK SLP102 DENSITY ALT 2500FT
  • 190225Z AUTO 12004KT 2 1/2SM HZ CLR 28/22 A2982 RMK SLP102 DENSITY ALT 2600FT
  • 190200Z AUTO 13004KT 3SM HZ CLR 29/21 A2982 RMK SLP103 DENSITY ALT 2700FT

Expired Forecast.
CZEG FIR / North America



MET'MAP, your aeronautical weather chart ! - Copyright ORBIFLY December 2007 - Disclaimer

ORBIFLY MET'MAP TEAM :

Programming & Development : Alexandra Zaïnal
Original concept : Baudouin d'Aumeries
Technical & hardware support : Manuel Goepfert
Assistance : Marc-Olivier Méhu




SOURCES & CREDITS :

   NOAA       Earth
Advisory